Tutoia, Brazil
Current Conditions -  °F | °C
As of 6:00 PM on Saturday 25 Oct 2014 (Local Time) from SBPB Reporting Station
Clear Clear  
Wind Chill: 82°   Ceiling: Unl
Heat Index: 87°   Visibility: 6mi
Dew Point: 72°   Wind: 23mph
Humidity: 70%   Direction: 80°E
Pressure: 29.8"   Gusts: NA
Location:  2.76°S, 42.27°W
Report Text: SBPB 252100Z 08020KT CAVOK 28/22 Q1009
Loading
Personal Weather Stations






























Interactive Weather Map
Tropical Storm Tracking
New forecast layout! Learn more

10-Day Weather Forecast

Advertisements
Track Severe Weather on mobile